Etusivu
METAR-TAF:

METAR-TAF

Lentoasemat :

Sokolin lentoasema

Magadan, Venäjä

Leveyspiiri: 59-33N, Pituuspiiri: 150-47E, korkeus merenpinnasta: 118 m

Tämänhetkinen sää

Tämä raportti tehtiin 49 minuuttia sitten, kello 13.00 UTC
Tuuli 8 kn koillisesta puuskistuen 17 kn:hen, vaihdellen lännen/luoteen ja idän välillä
Lämpötila -18°C
Kosteus 37%
Ilmanpaine 1012 hPa
Näkyvyys 10 km tai enemmän

METAR: UHMM 231300Z 04004G09MPS 300V100 9999 NSC M18/M29 Q1012 RMK QFE745 R28/14004MPS

Aika: 00:49 (13:49 UTC)

Sääennuste

Tämä raportti tehtiin 2 tuntia ja 53 minuuttia sitten, kello 10.56 UTC
Ennuste voimassa 23. päivästä klo 12 UTC - 24. päivään klo 18 UTC
Tuuli 14 kn pohjoisesta puuskistuen 27 kn:hen
Näkyvyys 10 km tai enemmän

TAF: UHMM 231056Z 2312/2418 01007G14MPS 9999 NSC

Säähavainnot ja -ennusteet yli 4000 lentoasemalta (METAR- ja TAF-raportit).

Käytössä olevat sääasemat on merkitty karttaan keltaisilla ja punaisilla pisteillä.

Aseta hiiri pisteen päälle nähdäksesi sääaseman nimen.

Klikkaa sitten nähdäksesi säähavainnot ja -ennusteet.

Kartan vaihtaminen: klikkaa mustalla rastilla varustettuja vihreitä pisteitä, niin voit zoomata sisään; viivalla varustettua vihreää pistettä, niin voit zoomata ulos tai vihreitä nuolia, niin pääset viereisille kartoille.


METAR-TAF: